Danville, WA (99121)

11:08 PM PDT on August 27, 2014 (GMT -0700)
IBCGRAND2 | Change Station
CLOSE
Current Station
Personal Weather Station
Location: Grand Forks, BC
Elevation: 1686 ft
Nearby Weather Stations

Elev 1686 ft 49.03 °N, 118.45 °W | Updated 2 minutes ago

Partly Cloudy
Partly Cloudy
66.7 °F
Feels Like 66.7 °F
N
0.0
Wind Variable Wind from West
Gusts 0.0 mph

Today
High -- | Low -- °F
--% Chance of Precip.
Yesterday
High -- | Low -- °F
Precip. -- in
6:03 AM 7:46 PM
Waxing Crescent, 6% visible
Pressure 29.85 in
Visibility 10.0 miles
Clouds Clear
Dew Point 56 °F
Humidity 69%
Rainfall 0.00 in
Snow Depth 0 in
UV 0 out of 12
Pollen 7.70 out of 12
Air Quality Not available.
Flu Activity Not available.
METAR KOMK 280553Z AUTO 00000KT 10SM CLR 20/10 A2987 RMK AO2 SLP106 T02000100 10344 20200 51012

More Conditions Fewer Conditions

Pressure 29.85 in
Visibility 10.0 miles
Clouds Clear
Dew Point 56 °F
Humidity 69%
Rainfall 0.00 in
Snow Depth 0 in
UV 0 out of 12
Pollen 7.70 out of 12
Air Quality Not available.
Flu Activity Not available.
METAR KOMK 280553Z AUTO 00000KT 10SM CLR 20/10 A2987 RMK AO2 SLP106 T02000100 10344 20200 51012

More Conditions Fewer Conditions

10-Day Weather Forecast

Almanac

Astronomy

Aug. 27, 2014 Rise Set
Actual Time 6:03 AM PDT 7:46 PM PDT
Civil Twilight 5:30 AM PDT 8:19 PM PDT
Nautical Twilight 4:49 AM PDT 9:00 PM PDT
Astronomical Twilight 4:04 AM PDT 9:45 PM PDT
Moon 8:18 AM PDT (8/27) 8:24 PM PDT (8/27)
Length of Visible Light 14h 49m
Length of Day
13h 42m
Tomorrow will be 3m 25s shorter.
Waxing Crescent, 6% of the Moon is Illuminated
Aug 28
Waxing Crescent
Sep 2
First Quarter
Sep 8
Full
Sep 15
Last Quarter
Sep 24
New

Community

WunderPhotos

Upload Photos

1,747,910 photos uploaded!

Nearby

Snow Depth

Station Depth Elevation
Sentinel Butte 0 in 4920 ft
Moses Mountain 1 in 5300 ft
Bunchgrass Meadow 0 in 5000 ft
Harts Pass 0 in 6500 ft
Quartz Peak 1 in 4700 ft

Earthquake Activity

City Distance Mag. Time & Date
No recent earthquake activity has been reported nearby.
Minimum magnitude displayed is 2.5.

Coastal Water Temperatures

Place Temperature
No Stations Reporting

Nearby Weather Stations